Terminal Aerodrome Forecast
Issued by NWS

Home | Current Version | Previous Version | Text Only | Print | Product List | Glossary Off
Versions: 1 2 3 4 5 6 7 8 9 10 11 12 13 14 15 16 17 18 19

000
FTUS43 KUNR 271720
TAFGCC
TAF
KGCC 271720Z 2718/2818 13010KT P6SM OVC010
     FM272200 03010KT 4SM -SHRA OVC005
     FM280500 36007KT 1 1/2SM -SN VV006
     FM281200 25015KT P6SM BKN010 OVC025=

USA.gov is the U.S. government's official web portal to all federal, state and local government web resources and services.